Nelsonville, WI (54458)

4:33 AM CST on December 08, 2019 (GMT -0600)
Nelsonville | | Change Station
Active Advisory: Special Weather Statement

Elev 1273 ft 44.50 °N, 89.31 °W | Updated 9 seconds ago

Partly Cloudy
Partly Cloudy
35.6 °F
Feels Like 32 °F
N
4.5
Wind Variable Wind from WSW
Gusts 5.8 mph

Today
High -- | Low -- °F
--% Chance of Precip.
Yesterday
High -- | Low -- °F
Precip. -- in
Pressure 29.75 in
Visibility 10.0 miles
Clouds Overcast 6500 ft
Windchill 32 °F
Dew Point 28 °F
Humidity 73%
Rainfall 0.00 in
Snow Depth Not available.
7:20 AM 4:17 PM
Waxing Gibbous, 86% visible
METAR KSTE 081015Z AUTO 20010G14KT 10SM OVC065 01/M05 A2975 RMK AO2 T00061048
Pressure 29.75 in
Visibility 10.0 miles
Clouds Overcast 6500 ft
Windchill 32 °F
Dew Point 28 °F
Humidity 73%
Rainfall 0.00 in
Snow Depth Not available.
7:20 AM 4:17 PM
Waxing Gibbous, 86% visible
METAR KSTE 081015Z AUTO 20010G14KT 10SM OVC065 01/M05 A2975 RMK AO2 T00061048

Get Your Daily Forecast Email!

Thanks for signing up!

Be on the lookout for a verification email in your inbox.

You'll start receiving severe weather alerts in your inbox..

×

10-Day Weather Forecast

Almanac

Astronomy

Dec. 08, 2019 Rise Set
Actual Time
Civil Twilight
Nautical Twilight
Astronomical Twilight
Moon
Length of Visible Light
Length of Day
Tomorrow will be .
, % of the Moon is Illuminated

Today's Extremes

State Highs State Lows

Community

WunderPhotos

Category 6

Welcome to Category 6. This is the collective home for Weather Underground's featured writeups by Dr. Jeff Masters (right), Bob Henson (left), Chris Burt, and other regular contributors.

Nearby

Air Quality

  Air Quality AQ Index Pollutant
Not available.

Snow Depth

Station Depth Elevation

Earthquake Activity

City Distance Mag. Time & Date
Minimum magnitude displayed is 2.5.

Coastal Water Temperatures

Place Temperature

Stations

Nearby Weather Stations

Station Location Temp. Windchill Dew Point Humidity Wind Precip. Elev Updated Type
                   

Watches & Warnings

There are currently no watches in effect.